createdAt,value
2023-01-29T00:02:17.075Z,-3.90
2023-01-29T00:04:44.868Z,-3.90
2023-01-29T00:07:12.642Z,-3.92
2023-01-29T00:09:40.394Z,-3.91
2023-01-29T00:12:10.609Z,-3.90
2023-01-29T00:14:38.169Z,-3.89
2023-01-29T00:17:05.682Z,-3.87
2023-01-29T00:19:33.213Z,-3.90
2023-01-29T00:22:00.733Z,-3.89
2023-01-29T00:24:28.324Z,-3.88
2023-01-29T00:26:55.853Z,-3.89
2023-01-29T00:29:23.376Z,-3.88
2023-01-29T00:31:50.898Z,-3.84
2023-01-29T00:34:19.204Z,-3.82
2023-01-29T00:36:46.758Z,-3.84
2023-01-29T00:39:14.283Z,-3.87
2023-01-29T00:42:00.671Z,-3.86
2023-01-29T00:44:46.739Z,-3.86
2023-01-29T00:47:32.803Z,-3.89
2023-01-29T00:50:04.990Z,-3.90
2023-01-29T00:52:32.633Z,-3.92
2023-01-29T00:55:00.964Z,-3.96
2023-01-29T00:57:30.685Z,-3.95
2023-01-29T00:59:58.311Z,-3.92
2023-01-29T01:02:46.989Z,-3.91
2023-01-29T01:05:20.448Z,-3.90
2023-01-29T01:07:50.804Z,-3.90
2023-01-29T01:10:22.097Z,-3.91
2023-01-29T01:13:01.464Z,-3.88
2023-01-29T01:15:31.719Z,-3.84
2023-01-29T01:18:00.982Z,-3.84
2023-01-29T01:20:30.996Z,-3.85
2023-01-29T01:22:58.590Z,-3.84
2023-01-29T01:25:27.090Z,-3.82
2023-01-29T01:27:57.565Z,-3.84
2023-01-29T01:30:26.223Z,-3.86
2023-01-29T01:32:53.752Z,-3.86
2023-01-29T01:35:21.462Z,-3.86
2023-01-29T01:37:49.743Z,-3.85
2023-01-29T01:40:23.112Z,-3.85
2023-01-29T01:43:01.376Z,-3.86
2023-01-29T01:45:35.700Z,-3.85
2023-01-29T01:48:21.857Z,-3.89
2023-01-29T01:50:53.844Z,-3.94
2023-01-29T01:53:30.874Z,-3.95
2023-01-29T01:56:05.006Z,-3.96
2023-01-29T01:58:34.835Z,-3.95
2023-01-29T02:01:07.346Z,-3.94
2023-01-29T02:04:23.634Z,-3.96
2023-01-29T02:07:12.218Z,-3.97
2023-01-29T02:09:46.537Z,-3.99
2023-01-29T02:12:16.837Z,-4.00
2023-01-29T02:14:45.195Z,-4.00
2023-01-29T02:17:15.723Z,-4.01
2023-01-29T02:20:08.607Z,-4.01
2023-01-29T02:22:56.178Z,-4.00
2023-01-29T02:26:02.914Z,-4.05
2023-01-29T02:28:38.420Z,-4.10
2023-01-29T02:31:09.590Z,-4.12
2023-01-29T02:33:59.520Z,-4.09
2023-01-29T02:37:05.034Z,-4.11
2023-01-29T02:39:45.612Z,-4.17
2023-01-29T02:42:27.438Z,-4.22
2023-01-29T02:45:11.631Z,-4.20
2023-01-29T02:47:50.182Z,-4.22
2023-01-29T02:50:34.936Z,-4.24
2023-01-29T02:53:09.460Z,-4.26
2023-01-29T02:55:49.013Z,-4.30
2023-01-29T02:58:42.375Z,-4.31
2023-01-29T03:01:19.053Z,-4.33
2023-01-29T03:03:56.120Z,-4.34
2023-01-29T03:06:29.772Z,-4.40
2023-01-29T03:09:10.303Z,-4.41
2023-01-29T03:11:43.094Z,-4.42
2023-01-29T03:14:14.933Z,-4.48
2023-01-29T03:16:53.851Z,-4.52
2023-01-29T03:19:43.031Z,-4.55
2023-01-29T03:22:23.358Z,-4.60
2023-01-29T03:25:14.216Z,-4.65
2023-01-29T03:28:03.777Z,-4.70
2023-01-29T03:31:05.905Z,-4.73
2023-01-29T03:33:50.925Z,-4.78
2023-01-29T03:36:45.434Z,-4.83
2023-01-29T03:39:15.733Z,-4.83
2023-01-29T03:41:56.255Z,-4.91
2023-01-29T03:44:37.263Z,-4.97
2023-01-29T03:47:08.883Z,-4.97
2023-01-29T03:50:12.595Z,-4.98
2023-01-29T03:52:51.492Z,-5.05
2023-01-29T03:55:29.304Z,-5.07
2023-01-29T03:58:16.464Z,-5.13
2023-01-29T04:00:58.789Z,-5.17
2023-01-29T04:03:26.429Z,-5.15
2023-01-29T04:06:10.063Z,-5.19
2023-01-29T04:09:22.434Z,-5.21
2023-01-29T04:12:06.147Z,-5.23
2023-01-29T04:14:34.678Z,-5.25
2023-01-29T04:17:12.544Z,-5.23
2023-01-29T04:19:48.069Z,-5.21
2023-01-29T04:22:36.683Z,-5.27
2023-01-29T04:25:16.180Z,-5.25
2023-01-29T04:28:01.893Z,-5.26
2023-01-29T04:30:36.236Z,-5.30
2023-01-29T04:33:19.682Z,-5.28
2023-01-29T04:36:00.312Z,-5.32
2023-01-29T04:39:11.052Z,-5.30
2023-01-29T04:41:47.600Z,-5.33
2023-01-29T04:44:50.773Z,-5.33
2023-01-29T04:47:36.799Z,-5.34
2023-01-29T04:50:38.974Z,-5.36
2023-01-29T04:53:29.812Z,-5.37
2023-01-29T04:56:21.155Z,-5.40
2023-01-29T04:58:54.789Z,-5.48
2023-01-29T05:01:29.952Z,-5.50
2023-01-29T05:03:59.473Z,-5.49
2023-01-29T05:06:27.672Z,-5.50
2023-01-29T05:08:56.937Z,-5.54
2023-01-29T05:11:25.884Z,-5.56
2023-01-29T05:13:53.998Z,-5.59
2023-01-29T05:16:27.019Z,-5.57
2023-01-29T05:18:55.473Z,-5.59
2023-01-29T05:21:24.028Z,-5.58
2023-01-29T05:24:12.980Z,-5.69
2023-01-29T05:27:00.960Z,-5.63
2023-01-29T05:29:28.555Z,-5.62
2023-01-29T05:31:56.269Z,-5.62
2023-01-29T05:34:24.081Z,-5.60
2023-01-29T05:36:51.703Z,-5.65
2023-01-29T05:39:19.542Z,-5.64
2023-01-29T05:41:47.072Z,-5.67
2023-01-29T05:44:14.634Z,-5.66
2023-01-29T05:46:42.204Z,-5.68
2023-01-29T05:49:09.852Z,-5.72
2023-01-29T05:51:37.470Z,-5.73
2023-01-29T05:54:05.365Z,-5.81
2023-01-29T05:56:32.781Z,-5.81
2023-01-29T05:59:00.332Z,-5.80
2023-01-29T06:01:27.770Z,-5.81
2023-01-29T06:03:55.284Z,-5.82
2023-01-29T06:06:22.830Z,-5.82
2023-01-29T06:08:50.360Z,-5.82
2023-01-29T06:11:18.473Z,-5.84
2023-01-29T06:13:46.389Z,-5.88
2023-01-29T06:16:14.972Z,-5.94
2023-01-29T06:18:42.855Z,-5.95
2023-01-29T06:21:13.561Z,-5.94
2023-01-29T06:23:41.211Z,-5.94
2023-01-29T06:26:13.961Z,-5.94
2023-01-29T06:28:42.276Z,-5.92
2023-01-29T06:31:27.410Z,-5.87
2023-01-29T06:33:58.978Z,-5.86
2023-01-29T06:36:26.481Z,-5.80
2023-01-29T06:38:53.994Z,-5.79
2023-01-29T06:41:25.581Z,-5.77
2023-01-29T06:43:54.478Z,-5.76
2023-01-29T06:46:22.021Z,-5.76
2023-01-29T06:48:49.583Z,-5.74
2023-01-29T06:51:17.390Z,-5.66
2023-01-29T06:53:46.428Z,-5.56
2023-01-29T06:56:14.450Z,-5.43
2023-01-29T06:58:43.680Z,-5.25
2023-01-29T07:01:17.448Z,-5.15
2023-01-29T07:03:53.073Z,-5.05
2023-01-29T07:06:20.725Z,-4.95
2023-01-29T07:08:48.243Z,-4.84
2023-01-29T07:11:15.713Z,-4.75
2023-01-29T07:13:43.206Z,-4.68
2023-01-29T07:16:10.745Z,-4.65
2023-01-29T07:18:38.403Z,-4.55
2023-01-29T07:21:07.435Z,-4.47
2023-01-29T07:23:35.768Z,-4.41
2023-01-29T07:26:05.284Z,-4.33
2023-01-29T07:28:36.992Z,-4.29
2023-01-29T07:31:06.002Z,-4.23
2023-01-29T07:33:34.284Z,-4.16
2023-01-29T07:36:01.965Z,-4.10
2023-01-29T07:38:32.493Z,-4.07
2023-01-29T07:41:01.310Z,-4.02
2023-01-29T07:43:30.423Z,-3.99
2023-01-29T07:46:03.148Z,-3.92
2023-01-29T07:48:30.845Z,-3.89
2023-01-29T07:50:59.119Z,-3.84
2023-01-29T07:53:28.424Z,-3.82
2023-01-29T07:55:56.153Z,-3.77
2023-01-29T07:58:24.021Z,-3.72
2023-01-29T08:00:51.644Z,-3.67
2023-01-29T08:03:20.362Z,-3.59
2023-01-29T08:05:48.465Z,-3.56
2023-01-29T08:08:16.382Z,-3.45
2023-01-29T08:10:43.818Z,-3.36
2023-01-29T08:13:11.395Z,-3.31
2023-01-29T08:15:39.386Z,-3.21
2023-01-29T08:18:07.247Z,-3.14
2023-01-29T08:20:34.744Z,-3.05
2023-01-29T08:23:04.811Z,-2.93
2023-01-29T08:25:33.294Z,-2.72
2023-01-29T08:28:01.291Z,-2.55
2023-01-29T08:30:31.667Z,-2.28
2023-01-29T08:32:59.234Z,-2.05
2023-01-29T08:35:27.515Z,-1.94
2023-01-29T08:38:00.589Z,-1.75
2023-01-29T08:40:31.932Z,-1.56
2023-01-29T08:43:02.499Z,-1.50
2023-01-29T08:45:33.493Z,-1.50
2023-01-29T08:48:01.239Z,-1.45
2023-01-29T08:50:30.832Z,-1.54
2023-01-29T08:53:00.579Z,-1.63
2023-01-29T08:55:28.291Z,-1.62
2023-01-29T08:57:57.488Z,-1.51
2023-01-29T09:00:25.187Z,-1.57
2023-01-29T09:02:52.772Z,-1.58
2023-01-29T09:05:20.635Z,-1.51
2023-01-29T09:07:48.204Z,-1.64
2023-01-29T09:10:16.181Z,-1.46
2023-01-29T09:12:43.621Z,-1.41
2023-01-29T09:15:11.710Z,-1.26
2023-01-29T09:17:39.171Z,-1.14
2023-01-29T09:20:07.872Z,-1.02
2023-01-29T09:22:35.760Z,-1.02
2023-01-29T09:25:03.612Z,-1.06
2023-01-29T09:27:31.081Z,-0.93
2023-01-29T09:29:58.954Z,-0.99
2023-01-29T09:32:51.971Z,-0.86
2023-01-29T09:35:14.273Z,-0.95
2023-01-29T09:37:41.822Z,-0.96
2023-01-29T09:40:28.460Z,-1.06
2023-01-29T09:43:07.550Z,-1.26
2023-01-29T09:45:37.082Z,-1.00
2023-01-29T09:48:05.968Z,-1.01
2023-01-29T09:50:41.582Z,-0.78
2023-01-29T09:53:12.039Z,-0.71
2023-01-29T09:55:45.654Z,-0.68
2023-01-29T09:58:25.217Z,-0.51
2023-01-29T10:01:08.040Z,-0.34
2023-01-29T10:03:48.502Z,-0.19
2023-01-29T10:06:33.234Z,-0.06
2023-01-29T10:09:38.962Z,-0.05
2023-01-29T10:12:18.353Z,0.02
2023-01-29T10:15:04.033Z,0.07
2023-01-29T10:17:56.812Z,0.18
2023-01-29T10:20:42.833Z,0.27
2023-01-29T10:23:31.143Z,0.39
2023-01-29T10:25:59.670Z,0.48
2023-01-29T10:28:47.720Z,0.57
2023-01-29T10:31:27.916Z,0.58
2023-01-29T10:34:07.901Z,0.60
2023-01-29T10:36:48.861Z,0.52
2023-01-29T10:39:25.601Z,0.41
2023-01-29T10:42:08.468Z,0.35
2023-01-29T10:44:45.173Z,0.26
2023-01-29T10:47:29.964Z,0.39
2023-01-29T10:50:09.730Z,0.55
2023-01-29T10:53:15.198Z,0.61
2023-01-29T10:59:47.981Z,0.38
2023-01-29T11:02:18.686Z,0.21
2023-01-29T11:04:46.435Z,0.17
2023-01-29T11:07:17.576Z,0.40
2023-01-29T11:10:01.346Z,0.60
2023-01-29T11:12:33.763Z,0.65
2023-01-29T11:15:18.526Z,0.53
2023-01-29T11:18:14.220Z,0.51
2023-01-29T11:20:44.563Z,0.59
2023-01-29T11:23:31.016Z,0.80
2023-01-29T11:26:00.257Z,0.97
2023-01-29T11:28:42.138Z,1.13
2023-01-29T11:31:27.645Z,1.17
2023-01-29T11:34:22.606Z,1.11
2023-01-29T11:37:03.259Z,1.18
2023-01-29T11:39:32.512Z,1.25
2023-01-29T11:42:05.247Z,1.26
2023-01-29T11:44:40.401Z,1.21
2023-01-29T11:47:18.216Z,1.30
2023-01-29T11:49:55.418Z,1.38
2023-01-29T11:52:36.628Z,1.27
2023-01-29T11:55:13.763Z,1.38
2023-01-29T11:57:54.316Z,1.19
2023-01-29T12:00:25.087Z,1.37
2023-01-29T12:03:03.374Z,1.37
2023-01-29T12:05:30.976Z,1.32
2023-01-29T12:08:00.754Z,1.30
2023-01-29T12:10:41.621Z,1.29
2023-01-29T12:13:20.163Z,1.05
2023-01-29T12:15:49.022Z,0.74
2023-01-29T12:18:41.404Z,0.76
2023-01-29T12:21:23.052Z,0.65
2023-01-29T12:23:57.692Z,0.59
2023-01-29T12:26:34.254Z,0.53
2023-01-29T12:29:27.989Z,0.42
2023-01-29T12:32:27.685Z,0.42
2023-01-29T12:35:23.829Z,0.64
2023-01-29T12:38:03.700Z,0.74
2023-01-29T12:40:46.357Z,0.71
2023-01-29T12:43:18.042Z,0.88
2023-01-29T12:45:52.261Z,1.00
2023-01-29T12:48:26.769Z,1.08
2023-01-29T12:51:08.495Z,1.13
2023-01-29T12:53:43.902Z,1.29
2023-01-29T12:56:41.306Z,1.22
2023-01-29T12:59:29.397Z,1.26
2023-01-29T13:02:24.530Z,1.13
2023-01-29T13:04:59.391Z,1.10
2023-01-29T13:07:33.289Z,0.82
2023-01-29T13:10:21.153Z,0.86
2023-01-29T13:12:56.135Z,0.98
2023-01-29T13:15:28.588Z,1.02
2023-01-29T13:18:29.561Z,1.01
2023-01-29T13:20:57.361Z,0.99
2023-01-29T13:23:38.250Z,1.06
2023-01-29T13:26:06.559Z,0.89
2023-01-29T13:28:34.145Z,0.96
2023-01-29T13:31:32.085Z,0.91
2023-01-29T13:34:04.489Z,0.96
2023-01-29T13:36:32.682Z,1.04
2023-01-29T13:39:07.436Z,1.18
2023-01-29T13:41:38.945Z,1.25
2023-01-29T13:44:18.325Z,1.31
2023-01-29T13:47:09.701Z,1.20
2023-01-29T13:49:45.765Z,1.20
2023-01-29T13:52:40.997Z,1.14
2023-01-29T13:55:21.482Z,1.15
2023-01-29T13:57:55.642Z,1.05
2023-01-29T14:00:31.010Z,1.06
2023-01-29T14:03:01.262Z,0.87
2023-01-29T14:05:31.996Z,0.80
2023-01-29T14:08:03.806Z,0.69
2023-01-29T14:10:33.646Z,0.52
2023-01-29T14:13:04.280Z,0.52
2023-01-29T14:15:36.901Z,0.53
2023-01-29T14:18:13.741Z,0.53
2023-01-29T14:20:47.369Z,0.52
2023-01-29T14:23:24.009Z,0.56
2023-01-29T14:25:51.597Z,0.57
2023-01-29T14:28:27.087Z,0.57
2023-01-29T14:30:56.167Z,0.55
2023-01-29T14:33:43.381Z,0.49
2023-01-29T14:36:13.822Z,0.52
2023-01-29T14:38:52.530Z,0.54
2023-01-29T14:41:31.118Z,0.43
2023-01-29T14:44:40.472Z,0.35
2023-01-29T14:47:19.326Z,0.18
2023-01-29T14:49:55.843Z,0.16
2023-01-29T14:52:44.073Z,0.02
2023-01-29T14:55:27.120Z,0.04
2023-01-29T14:57:58.360Z,-0.01
2023-01-29T15:00:33.532Z,-0.09
2023-01-29T15:03:04.383Z,-0.10
2023-01-29T15:05:37.418Z,-0.13
2023-01-29T15:08:16.823Z,-0.15
2023-01-29T15:11:09.377Z,-0.20
2023-01-29T15:13:50.946Z,-0.29
2023-01-29T15:16:24.777Z,-0.35
2023-01-29T15:19:04.405Z,-0.40
2023-01-29T15:21:32.233Z,-0.40
2023-01-29T15:24:07.187Z,-0.48
2023-01-29T15:26:36.159Z,-0.54
2023-01-29T15:29:05.983Z,-0.58
2023-01-29T15:31:35.694Z,-0.58
2023-01-29T15:34:07.739Z,-0.61
2023-01-29T15:36:37.336Z,-0.68
2023-01-29T15:39:10.629Z,-0.76
2023-01-29T15:41:38.819Z,-0.74
2023-01-29T15:44:18.856Z,-0.74
2023-01-29T15:46:54.644Z,-0.75
2023-01-29T15:49:34.114Z,-0.82
2023-01-29T15:52:07.605Z,-0.88
2023-01-29T15:54:36.184Z,-0.94
2023-01-29T15:57:04.054Z,-0.93
2023-01-29T15:59:36.773Z,-1.01
2023-01-29T16:02:26.144Z,-1.06
2023-01-29T16:04:54.173Z,-1.14
2023-01-29T16:07:22.637Z,-1.22
2023-01-29T16:09:51.628Z,-1.25
2023-01-29T16:12:19.631Z,-1.32
2023-01-29T16:14:49.848Z,-1.40
2023-01-29T16:17:26.290Z,-1.49
2023-01-29T16:20:01.638Z,-1.53
2023-01-29T16:22:35.843Z,-1.57
2023-01-29T16:25:12.440Z,-1.63
2023-01-29T16:27:43.439Z,-1.65
2023-01-29T16:30:16.524Z,-1.64
2023-01-29T16:32:44.129Z,-1.57
2023-01-29T16:35:17.393Z,-1.62
2023-01-29T16:37:48.648Z,-1.64
2023-01-29T16:40:27.165Z,-1.60
2023-01-29T16:43:17.196Z,-1.58
2023-01-29T16:46:06.222Z,-1.54
2023-01-29T16:48:35.332Z,-1.49
2023-01-29T16:51:14.028Z,-1.45
2023-01-29T16:53:53.716Z,-1.44
2023-01-29T16:56:23.881Z,-1.45
2023-01-29T16:58:53.515Z,-1.49
2023-01-29T17:01:24.376Z,-1.47
2023-01-29T17:04:14.972Z,-1.45
2023-01-29T17:06:47.696Z,-1.42
2023-01-29T17:09:23.214Z,-1.39
2023-01-29T17:11:56.540Z,-1.39
2023-01-29T17:14:26.255Z,-1.40
2023-01-29T17:17:03.995Z,-1.38
2023-01-29T17:19:31.593Z,-1.36
2023-01-29T17:21:59.686Z,-1.37
2023-01-29T17:24:27.327Z,-1.40
2023-01-29T17:26:54.807Z,-1.40
2023-01-29T17:29:28.042Z,-1.40
2023-01-29T17:31:56.229Z,-1.37
2023-01-29T17:34:24.404Z,-1.40
2023-01-29T17:36:52.431Z,-1.42
2023-01-29T17:39:22.991Z,-1.42
2023-01-29T17:41:53.370Z,-1.43
2023-01-29T17:44:21.775Z,-1.45
2023-01-29T17:46:49.646Z,-1.44
2023-01-29T17:49:32.687Z,-1.42
2023-01-29T17:52:00.389Z,-1.41
2023-01-29T17:54:28.167Z,-1.40
2023-01-29T17:56:55.892Z,-1.40
2023-01-29T17:59:26.138Z,-1.42
2023-01-29T18:01:54.038Z,-1.41
2023-01-29T18:04:21.671Z,-1.46
2023-01-29T18:06:51.916Z,-1.45
2023-01-29T18:09:21.837Z,-1.50
2023-01-29T18:11:50.721Z,-1.44
2023-01-29T18:14:18.300Z,-1.49
2023-01-29T18:16:46.385Z,-1.53
2023-01-29T18:19:24.033Z,-1.55
2023-01-29T18:21:52.566Z,-1.53
2023-01-29T18:24:20.966Z,-1.54
2023-01-29T18:26:49.776Z,-1.59
2023-01-29T18:29:17.397Z,-1.59
2023-01-29T18:31:44.920Z,-1.58
2023-01-29T18:34:12.436Z,-1.60
2023-01-29T18:36:40.066Z,-1.61
2023-01-29T18:39:07.654Z,-1.62
2023-01-29T18:41:35.243Z,-1.58
2023-01-29T18:44:02.687Z,-1.63
2023-01-29T18:46:30.201Z,-1.67
2023-01-29T18:48:57.654Z,-1.63
2023-01-29T18:51:25.177Z,-1.66
2023-01-29T18:53:52.795Z,-1.69
2023-01-29T18:56:20.460Z,-1.69
2023-01-29T18:58:51.936Z,-1.67
2023-01-29T19:01:22.900Z,-1.67
2023-01-29T19:03:50.509Z,-1.69
2023-01-29T19:06:18.118Z,-1.70
2023-01-29T19:08:45.799Z,-1.74
2023-01-29T19:11:13.407Z,-1.75
2023-01-29T19:13:42.626Z,-1.78
2023-01-29T19:16:11.091Z,-1.73
2023-01-29T19:18:38.889Z,-1.75
2023-01-29T19:21:08.947Z,-1.74
2023-01-29T19:23:36.696Z,-1.75
2023-01-29T19:26:04.636Z,-1.75
2023-01-29T19:28:32.763Z,-1.76
2023-01-29T19:31:01.065Z,-1.75
2023-01-29T19:33:28.917Z,-1.78
2023-01-29T19:36:00.149Z,-1.76
2023-01-29T19:38:27.808Z,-1.74
2023-01-29T19:40:55.482Z,-1.76
2023-01-29T19:43:22.989Z,-1.75
2023-01-29T19:45:57.936Z,-1.79
2023-01-29T19:48:26.517Z,-1.82
2023-01-29T19:50:59.690Z,-1.78
2023-01-29T19:53:31.228Z,-1.87
2023-01-29T19:56:00.689Z,-1.90
2023-01-29T19:58:28.670Z,-1.89
2023-01-29T20:01:02.042Z,-1.89
2023-01-29T20:03:30.051Z,-1.88
2023-01-29T20:06:05.369Z,-1.88
2023-01-29T20:08:34.018Z,-1.94
2023-01-29T20:11:01.836Z,-2.01
2023-01-29T20:13:29.388Z,-2.05
2023-01-29T20:15:57.060Z,-2.10
2023-01-29T20:18:24.636Z,-2.12
2023-01-29T20:20:53.552Z,-2.20
2023-01-29T20:23:35.481Z,-2.26
2023-01-29T20:26:06.577Z,-2.27
2023-01-29T20:28:35.145Z,-2.35
2023-01-29T20:31:03.844Z,-2.45
2023-01-29T20:33:32.036Z,-2.49
2023-01-29T20:36:02.305Z,-2.51
2023-01-29T20:38:34.709Z,-2.60
2023-01-29T20:41:21.390Z,-2.68
2023-01-29T20:43:50.889Z,-2.76
2023-01-29T20:46:19.037Z,-2.78
2023-01-29T20:48:46.977Z,-2.82
2023-01-29T20:51:16.990Z,-2.91
2023-01-29T20:53:46.533Z,-2.96
2023-01-29T20:56:16.588Z,-2.98
2023-01-29T20:58:45.059Z,-2.97
2023-01-29T21:01:17.568Z,-3.00
2023-01-29T21:03:46.460Z,-3.06
2023-01-29T21:06:14.485Z,-3.03
2023-01-29T21:08:42.363Z,-3.08
2023-01-29T21:11:10.510Z,-3.09
2023-01-29T21:13:38.195Z,-3.16
2023-01-29T21:16:06.041Z,-3.19
2023-01-29T21:18:33.617Z,-3.24
2023-01-29T21:21:01.146Z,-3.25
2023-01-29T21:23:28.917Z,-3.26
2023-01-29T21:26:04.413Z,-3.28
2023-01-29T21:28:32.684Z,-3.36
2023-01-29T21:31:05.747Z,-3.39
2023-01-29T21:33:34.563Z,-3.42
2023-01-29T21:36:02.486Z,-3.38
2023-01-29T21:38:30.112Z,-3.39
2023-01-29T21:41:05.120Z,-3.35
2023-01-29T21:43:32.987Z,-3.38
2023-01-29T21:46:11.479Z,-3.37
2023-01-29T21:48:40.402Z,-3.38
2023-01-29T21:51:08.378Z,-3.43
2023-01-29T21:53:36.904Z,-3.48
2023-01-29T21:56:05.918Z,-3.44
2023-01-29T21:58:33.572Z,-3.45
2023-01-29T22:01:36.499Z,-3.38
2023-01-29T22:03:49.206Z,-3.42
2023-01-29T22:06:16.685Z,-3.42
2023-01-29T22:08:44.246Z,-3.32
2023-01-29T22:11:11.964Z,-3.33
2023-01-29T22:13:39.595Z,-3.33
2023-01-29T22:16:07.712Z,-3.32
2023-01-29T22:18:35.404Z,-3.32
2023-01-29T22:21:03.087Z,-3.33
2023-01-29T22:23:31.673Z,-3.33
2023-01-29T22:26:05.970Z,-3.31
2023-01-29T22:28:33.534Z,-3.28
2023-01-29T22:31:02.548Z,-3.26
2023-01-29T22:33:30.290Z,-3.33
2023-01-29T22:35:58.079Z,-3.27
2023-01-29T22:38:26.110Z,-3.28
2023-01-29T22:40:55.080Z,-3.24
2023-01-29T22:43:23.439Z,-3.21
2023-01-29T22:45:50.921Z,-3.13
2023-01-29T22:48:18.661Z,-3.18
2023-01-29T22:50:54.011Z,-3.10
2023-01-29T22:53:21.623Z,-3.09
2023-01-29T22:55:55.965Z,-3.09
2023-01-29T22:58:23.582Z,-3.15
2023-01-29T23:00:51.444Z,-3.17
2023-01-29T23:03:19.064Z,-3.12
2023-01-29T23:05:46.496Z,-3.10
2023-01-29T23:08:14.164Z,-3.12
2023-01-29T23:10:41.632Z,-3.10
2023-01-29T23:13:09.224Z,-3.14
2023-01-29T23:15:36.697Z,-3.12
2023-01-29T23:18:04.985Z,-3.16
2023-01-29T23:20:32.796Z,-3.15
2023-01-29T23:23:00.483Z,-3.12
2023-01-29T23:25:48.126Z,-3.11
2023-01-29T23:28:15.745Z,-3.09
2023-01-29T23:30:45.419Z,-3.10
2023-01-29T23:33:13.057Z,-3.01
2023-01-29T23:35:40.544Z,-2.98
2023-01-29T23:38:08.197Z,-2.93
2023-01-29T23:40:35.626Z,-2.82
2023-01-29T23:43:03.206Z,-2.77
2023-01-29T23:45:30.701Z,-2.74
2023-01-29T23:47:58.791Z,-2.71
2023-01-29T23:50:26.350Z,-2.62
2023-01-29T23:52:53.954Z,-2.62
2023-01-29T23:55:21.393Z,-2.63
2023-01-29T23:57:48.998Z,-2.59
